Ogden, Arkansas
Current Conditions -  °F | °C
As of 9:53 PM on Saturday 22 Nov 2014 (Local Time) from KTXK Reporting Station
Moderate Rain Moderate Rain  
Wind Chill: 16°   Ceiling: 9500
Heat Index: 16°   Visibility: 4mi
Dew Point: 15°   Wind: 6mph
Humidity: 96%   Direction: 120°ESE
Pressure: 29.85"   Gusts: NA
Location:  33.58°N, 94.04°W
Report Text: KTXK 230353Z AUTO 12005KT 4SM RA BR FEW050 SCT070 OVC095 16/15 A2985 RMK AO2 SLP106 P0008 T01560150
Loading
Personal Weather Stations






























Interactive Weather Map New forecast layout! Learn more

10-Day Weather Forecast

Advertisements
Track Severe Weather on mobile